Time;durP1;ratioP1;P1;durP2;ratioP2;P2;SDS_P1;SDS_P2;PMS_P1;PMS_P2;Temp;Humidity;BMP_temperature;BMP_pressure;BME280_temperature;BME280_humidity;BME280_pressure;Samples;Min_cycle;Max_cycle;Signal;HPM_P1;HPM_P2
2020/12/23 00:00:14;;;;;;;1.90;1.80;;;3.10;99.90;;;;;;4806536;29;20694;-84
2020/12/23 00:02:41;;;;;;;2.17;1.97;;;3.30;99.90;;;;;;4821197;29;20235;-84
2020/12/23 00:05:09;;;;;;;6.90;3.47;;;3.40;99.90;;;;;;4855029;29;20786;-84
2020/12/23 00:07:36;;;;;;;1.70;1.60;;;3.50;99.90;;;;;;4837250;29;20600;-84
2020/12/23 00:10:04;;;;;;;2.73;2.60;;;3.70;99.90;;;;;;4841114;29;20553;-83
2020/12/23 00:12:29;;;;;;;13.73;4.00;;;3.80;99.90;;;;;;4839626;29;20265;-84
2020/12/23 00:14:55;;;;;;;3.90;2.83;;;3.80;99.90;;;;;;4839353;29;20220;-84
2020/12/23 00:17:21;;;;;;;35.70;6.23;;;3.70;99.90;;;;;;4838494;29;20235;-85
2020/12/23 00:20:06;;;;;;;6.53;2.33;;;3.60;99.90;;;;;;4827893;29;20246;-84
2020/12/23 00:22:51;;;;;;;11.03;2.97;;;3.40;99.90;;;;;;4842408;29;20232;-84
2020/12/23 00:25:17;;;;;;;2.17;1.63;;;3.10;99.90;;;;;;4841245;29;20215;-85
2020/12/23 00:28:03;;;;;;;1.47;1.37;;;3.00;99.90;;;;;;4831551;29;20201;-85
2020/12/23 00:30:28;;;;;;;2.20;2.10;;;3.00;99.90;;;;;;4826053;29;20585;-85
2020/12/23 00:32:54;;;;;;;1.33;1.23;;;3.00;99.90;;;;;;4828447;29;20583;-85
2020/12/23 00:35:20;;;;;;;1.80;1.40;;;3.10;99.90;;;;;;4845250;29;20682;-85
2020/12/23 00:37:46;;;;;;;14.90;2.57;;;3.20;99.90;;;;;;4842783;29;21047;-83
2020/12/23 00:40:12;;;;;;;3.13;2.47;;;3.30;99.90;;;;;;4812145;29;20204;-84
2020/12/23 00:42:37;;;;;;;2.33;1.70;;;3.40;99.90;;;;;;4858826;29;20193;-84
2020/12/23 00:45:04;;;;;;;32.70;2.37;;;3.40;99.90;;;;;;4841620;29;20288;-84
2020/12/23 00:47:29;;;;;;;1.63;1.53;;;3.30;99.90;;;;;;4843018;29;20248;-84
2020/12/23 00:49:55;;;;;;;2.80;2.53;;;3.20;99.90;;;;;;4826621;29;20232;-84
2020/12/23 00:52:21;;;;;;;2.23;2.00;;;3.40;99.90;;;;;;4841151;29;21293;-84
2020/12/23 00:54:47;;;;;;;2.27;2.17;;;3.50;99.90;;;;;;4811317;29;21170;-84
2020/12/23 00:57:12;;;;;;;2.67;2.23;;;3.60;99.90;;;;;;4850341;29;20229;-85
2020/12/23 00:59:38;;;;;;;3.00;2.80;;;3.50;99.90;;;;;;4827374;29;20283;-84
2020/12/23 01:02:04;;;;;;;1.97;1.63;;;3.50;99.90;;;;;;4828841;29;20229;-83
2020/12/23 01:04:29;;;;;;;2.40;2.30;;;3.50;99.90;;;;;;4842000;29;20248;-84
2020/12/23 01:06:56;;;;;;;5.43;2.93;;;3.50;99.90;;;;;;4842755;29;20192;-84
2020/12/23 01:09:22;;;;;;;9.80;2.20;;;3.30;99.90;;;;;;4829571;29;20771;-84
2020/12/23 01:11:48;;;;;;;2.23;2.13;;;3.20;99.90;;;;;;4840388;29;20239;-84
2020/12/23 01:14:15;;;;;;;2.20;1.97;;;3.20;99.90;;;;;;4827275;29;20220;-85
2020/12/23 01:16:41;;;;;;;13.60;2.33;;;3.20;99.90;;;;;;4841158;29;20231;-84
2020/12/23 01:19:07;;;;;;;14.17;1.90;;;3.10;99.90;;;;;;4841571;29;20612;-84
2020/12/23 01:21:32;;;;;;;1.50;1.40;;;3.00;99.90;;;;;;4828194;29;20247;-84
2020/12/23 01:23:58;;;;;;;1.50;1.40;;;2.90;99.90;;;;;;4814203;29;20232;-83
2020/12/23 01:26:24;;;;;;;2.10;1.37;;;2.70;99.90;;;;;;4827969;29;21077;-84
2020/12/23 01:28:49;;;;;;;1.70;1.60;;;2.50;99.90;;;;;;4855416;29;20682;-83
2020/12/23 01:31:15;;;;;;;1.60;1.50;;;2.50;99.90;;;;;;4826065;29;20200;-84
2020/12/23 01:33:41;;;;;;;1.40;1.30;;;2.40;99.90;;;;;;4842320;29;20273;-83
2020/12/23 01:36:08;;;;;;;1.87;1.73;;;2.40;99.90;;;;;;4826266;29;20224;-84
2020/12/23 01:38:34;;;;;;;2.63;1.67;;;2.50;99.90;;;;;;4854692;29;20706;-84
2020/12/23 01:41:02;;;;;;;1.83;1.33;;;2.60;99.90;;;;;;4842350;29;20283;-84
2020/12/23 01:43:28;;;;;;;1.80;1.70;;;2.70;99.90;;;;;;4856198;29;21334;-84
2020/12/23 01:45:55;;;;;;;1.83;1.73;;;2.70;99.90;;;;;;4842782;29;20200;-83
2020/12/23 01:48:28;;;;;;;1.27;1.07;;;2.50;99.90;;;;;;4856034;29;20217;-83
2020/12/23 01:50:57;;;;;;;1.87;1.77;;;2.40;99.90;;;;;;4856987;29;20275;-84
2020/12/23 01:53:24;;;;;;;4.47;2.70;;;2.30;99.90;;;;;;4826204;29;20234;-83
2020/12/23 01:55:51;;;;;;;0.67;0.67;;;2.30;99.90;;;;;;4857576;29;20232;-84
2020/12/23 01:58:16;;;;;;;26.17;2.60;;;2.40;99.90;;;;;;4810387;29;20236;-84
2020/12/23 02:00:42;;;;;;;1.60;1.50;;;2.50;99.90;;;;;;4828238;29;20200;-83
2020/12/23 02:03:11;;;;;;;15.93;2.40;;;2.60;99.90;;;;;;4860603;29;20228;-84
2020/12/23 02:05:41;;;;;;;2.33;2.13;;;2.70;99.90;;;;;;4840025;29;20695;-85
2020/12/23 02:08:08;;;;;;;5.13;2.87;;;2.80;99.90;;;;;;4858632;29;20342;-85
2020/12/23 02:10:34;;;;;;;1.70;1.60;;;2.90;99.90;;;;;;4825731;29;20757;-84
2020/12/23 02:13:00;;;;;;;1.27;1.27;;;3.10;99.90;;;;;;4828977;29;20676;-84
2020/12/23 02:15:26;;;;;;;2.30;1.77;;;3.10;99.90;;;;;;4841418;29;20228;-84
2020/12/23 02:17:52;;;;;;;2.07;1.87;;;3.20;99.90;;;;;;4825463;29;20852;-84
2020/12/23 02:20:18;;;;;;;1.80;1.57;;;3.30;99.90;;;;;;4828286;29;20228;-84
2020/12/23 02:22:46;;;;;;;1.97;1.83;;;3.30;99.90;;;;;;4857048;29;20710;-84
2020/12/23 02:25:13;;;;;;;4.73;2.93;;;3.20;99.90;;;;;;4858227;29;20197;-85
2020/12/23 02:27:40;;;;;;;3.10;1.50;;;3.20;99.90;;;;;;4825340;29;20208;-84
2020/12/23 02:30:07;;;;;;;2.37;2.20;;;3.20;99.90;;;;;;4810741;29;20701;-83
2020/12/23 02:32:33;;;;;;;9.17;2.50;;;3.10;99.90;;;;;;4841051;29;20248;-84
2020/12/23 02:34:59;;;;;;;16.23;1.90;;;3.20;99.90;;;;;;4856492;29;20251;-84
2020/12/23 02:37:25;;;;;;;4.43;2.17;;;3.20;99.90;;;;;;4824121;29;20224;-84
2020/12/23 02:39:54;;;;;;;2.57;2.37;;;3.20;99.90;;;;;;4856609;29;20733;-84
2020/12/23 02:42:22;;;;;;;10.43;3.17;;;3.30;99.90;;;;;;4855435;29;20241;-84
2020/12/23 02:44:48;;;;;;;4.00;3.77;;;3.40;99.90;;;;;;4839143;29;21488;-84
2020/12/23 02:47:16;;;;;;;3.50;2.87;;;3.30;99.90;;;;;;4821499;29;20681;-84
2020/12/23 02:49:42;;;;;;;3.17;2.40;;;3.10;99.90;;;;;;4840891;29;20327;-84
2020/12/23 02:52:09;;;;;;;3.80;2.73;;;3.10;99.90;;;;;;4841385;29;20230;-84
2020/12/23 02:54:35;;;;;;;11.33;3.67;;;3.30;99.90;;;;;;4859045;29;20248;-84
2020/12/23 02:57:02;;;;;;;2.00;1.83;;;3.20;99.90;;;;;;4840374;29;20240;-84
2020/12/23 02:59:27;;;;;;;3.20;2.90;;;3.20;99.90;;;;;;4838616;29;20232;-83
2020/12/23 03:01:53;;;;;;;4.00;3.57;;;3.20;99.90;;;;;;4824923;29;20232;-84
2020/12/23 03:04:19;;;;;;;26.00;3.73;;;3.30;99.90;;;;;;4838830;29;20288;-85
2020/12/23 03:06:45;;;;;;;4.67;4.13;;;3.30;99.90;;;;;;4839521;29;20657;-84
2020/12/23 03:09:12;;;;;;;2.77;2.57;;;3.30;99.90;;;;;;4808692;29;20251;-85
2020/12/23 03:11:39;;;;;;;3.90;3.50;;;3.20;99.90;;;;;;4838997;29;20303;-84
2020/12/23 03:14:06;;;;;;;7.37;3.17;;;3.30;99.90;;;;;;4853883;29;20714;-84
2020/12/23 03:16:32;;;;;;;9.23;2.73;;;3.40;99.90;;;;;;4856051;29;21040;-85
2020/12/23 03:18:58;;;;;;;25.70;3.90;;;3.50;99.90;;;;;;4840737;29;20228;-84
2020/12/23 03:21:23;;;;;;;11.80;3.90;;;3.50;99.90;;;;;;4823445;29;20232;-84
2020/12/23 03:23:49;;;;;;;15.30;4.37;;;3.60;99.90;;;;;;4825042;29;20219;-84
2020/12/23 03:26:15;;;;;;;4.00;3.37;;;3.60;99.90;;;;;;4856085;29;20215;-84
2020/12/23 03:28:41;;;;;;;4.27;3.13;;;3.60;99.90;;;;;;4838553;29;20568;-84
2020/12/23 03:31:07;;;;;;;5.50;2.67;;;3.70;99.90;;;;;;4838293;29;20216;-85
2020/12/23 03:33:33;;;;;;;28.03;4.97;;;3.80;99.90;;;;;;4838199;29;20192;-86
2020/12/23 03:36:00;;;;;;;5.33;3.80;;;3.90;99.90;;;;;;4813761;29;20792;-85
2020/12/23 03:38:26;;;;;;;30.10;4.13;;;4.10;99.90;;;;;;4849529;29;20227;-84
2020/12/23 03:40:52;;;;;;;2.33;2.13;;;4.20;99.90;;;;;;4834296;29;20256;-84
2020/12/23 03:43:18;;;;;;;7.77;4.13;;;4.20;99.90;;;;;;4836820;29;20197;-84
2020/12/23 03:45:44;;;;;;;6.87;5.03;;;4.20;99.90;;;;;;4838130;29;20200;-84
2020/12/23 03:48:10;;;;;;;17.50;3.10;;;4.30;99.90;;;;;;4839281;29;20930;-84
2020/12/23 03:50:35;;;;;;;5.83;5.33;;;4.30;99.90;;;;;;4821646;29;20609;-85
2020/12/23 03:53:01;;;;;;;5.10;4.60;;;4.30;99.90;;;;;;4835151;29;20239;-85
2020/12/23 03:55:27;;;;;;;4.43;3.67;;;4.40;99.90;;;;;;4836570;29;20295;-85
2020/12/23 03:57:53;;;;;;;18.03;4.30;;;4.40;99.90;;;;;;4836936;29;20728;-85
2020/12/23 04:00:18;;;;;;;5.87;4.33;;;4.30;99.90;;;;;;4836715;29;20231;-85
2020/12/23 04:02:44;;;;;;;4.47;4.07;;;4.40;99.90;;;;;;4824664;29;20289;-83
2020/12/23 04:05:10;;;;;;;3.43;3.13;;;4.40;99.90;;;;;;4824179;29;21023;-84
2020/12/23 04:07:36;;;;;;;5.53;4.27;;;4.40;99.90;;;;;;4836445;29;20482;-84
2020/12/23 04:10:04;;;;;;;6.73;4.50;;;4.50;99.90;;;;;;4825164;29;20220;-84
2020/12/23 04:12:30;;;;;;;6.33;4.33;;;4.50;99.90;;;;;;4839300;29;20227;-85
2020/12/23 04:14:56;;;;;;;3.83;2.60;;;4.50;99.90;;;;;;4822114;29;20707;-84
2020/12/23 04:17:22;;;;;;;23.30;4.90;;;4.60;99.90;;;;;;4837354;29;20216;-84
2020/12/23 04:19:47;;;;;;;7.30;5.03;;;4.70;99.90;;;;;;4821560;29;20741;-85
2020/12/23 04:22:13;;;;;;;3.73;2.77;;;4.80;99.90;;;;;;4806627;29;20211;-84
2020/12/23 04:24:39;;;;;;;12.10;3.87;;;4.80;99.90;;;;;;4837967;29;20193;-85
2020/12/23 04:27:05;;;;;;;7.47;3.57;;;4.80;99.90;;;;;;4808201;29;20727;-85
2020/12/23 04:29:31;;;;;;;6.73;4.27;;;4.70;99.90;;;;;;4832516;29;20237;-86
2020/12/23 04:31:57;;;;;;;5.77;3.20;;;4.70;99.90;;;;;;4849215;29;20233;-85
2020/12/23 04:34:22;;;;;;;8.83;3.97;;;4.70;99.90;;;;;;4836098;29;20196;-84
2020/12/23 04:36:48;;;;;;;8.37;3.37;;;4.80;99.90;;;;;;4821408;29;20272;-85
2020/12/23 04:39:14;;;;;;;6.60;4.87;;;4.90;99.90;;;;;;4820731;29;20275;-84
2020/12/23 04:41:39;;;;;;;4.47;4.17;;;4.90;99.90;;;;;;4816504;29;20363;-84
2020/12/23 04:44:06;;;;;;;5.23;4.00;;;4.90;99.90;;;;;;4816511;29;20221;-86
2020/12/23 04:46:39;;;;;;;6.57;4.33;;;4.90;99.90;;;;;;4832688;29;20258;-84
2020/12/23 04:49:06;;;;;;;6.27;3.40;;;4.90;99.90;;;;;;4834166;29;20200;-84
2020/12/23 04:51:38;;;;;;;3.60;2.73;;;5.00;99.90;;;;;;4820979;29;20660;-86
2020/12/23 04:54:06;;;;;;;4.97;3.60;;;5.30;99.90;;;;;;4837423;29;20222;-86
2020/12/23 04:56:35;;;;;;;4.47;2.47;;;5.20;99.90;;;;;;4854718;29;20216;-85
2020/12/23 04:59:02;;;;;;;6.97;6.37;;;5.20;99.90;;;;;;4855225;29;20296;-84
2020/12/23 05:01:28;;;;;;;4.93;4.40;;;5.30;99.90;;;;;;4855563;29;20233;-85
2020/12/23 05:03:55;;;;;;;10.10;5.27;;;5.50;99.90;;;;;;4837844;29;21041;-85
2020/12/23 05:06:22;;;;;;;4.43;4.07;;;5.60;99.90;;;;;;4820585;29;20231;-84
2020/12/23 05:08:48;;;;;;;11.60;6.90;;;5.70;99.90;;;;;;4837408;29;20220;-83
2020/12/23 05:11:14;;;;;;;14.37;4.83;;;5.80;99.90;;;;;;4837885;29;22334;-86
2020/12/23 05:13:41;;;;;;;5.80;3.70;;;5.90;99.90;;;;;;4824370;29;20228;-86
2020/12/23 05:16:09;;;;;;;7.50;5.00;;;5.90;99.90;;;;;;4813642;29;20193;-86
2020/12/23 05:18:37;;;;;;;5.53;4.97;;;5.90;99.90;;;;;;4844311;29;22457;-87
2020/12/23 05:21:14;;;;;;;7.40;4.63;;;5.90;99.90;;;;;;4815306;29;20244;-86
2020/12/23 05:23:50;;;;;;;7.10;5.07;;;6.00;99.90;;;;;;4831178;29;20271;-88
2020/12/23 05:26:17;;;;;;;8.80;4.63;;;6.10;99.90;;;;;;4844893;29;20223;-88
2020/12/23 05:28:44;;;;;;;5.13;4.67;;;6.10;99.90;;;;;;4842932;29;21005;-89
2020/12/23 05:31:13;;;;;;;7.13;5.30;;;6.10;99.90;;;;;;4842943;29;20216;-92
2020/12/23 05:33:42;;;;;;;6.53;3.83;;;6.10;99.90;;;;;;4856761;29;20201;-94
2020/12/23 05:36:13;;;;;;;7.03;4.10;;;6.00;99.90;;;;;;4842011;29;20220;-92
2020/12/23 05:38:40;;;;;;;4.87;4.00;;;6.00;99.90;;;;;;4855490;29;20248;-96
2020/12/23 05:41:08;;;;;;;5.23;3.93;;;6.10;99.90;;;;;;4840814;29;20226;-89
2020/12/23 05:43:34;;;;;;;9.27;4.87;;;6.10;99.90;;;;;;4844324;29;20243;-88
2020/12/23 05:46:02;;;;;;;5.13;4.03;;;6.10;99.90;;;;;;4832052;29;20267;-89
2020/12/23 05:48:30;;;;;;;6.00;4.67;;;6.20;99.90;;;;;;4845084;29;20238;-91
2020/12/23 05:50:56;;;;;;;20.17;6.20;;;6.20;99.90;;;;;;4830459;29;20231;-92
2020/12/23 05:53:26;;;;;;;7.33;5.83;;;6.20;99.90;;;;;;4830175;29;20280;-90
2020/12/23 05:55:51;;;;;;;23.23;4.50;;;6.30;99.90;;;;;;4845441;29;20220;-89
2020/12/23 05:58:31;;;;;;;10.47;5.73;;;6.30;99.90;;;;;;4845954;29;21400;-91
2020/12/23 06:00:59;;;;;;;11.77;6.13;;;6.40;99.90;;;;;;4845002;29;20237;-89
2020/12/23 06:03:44;;;;;;;9.47;5.43;;;6.40;99.90;;;;;;4828979;29;20236;-92
2020/12/23 06:06:11;;;;;;;6.87;4.33;;;6.50;99.90;;;;;;4854452;29;20359;-89
2020/12/23 06:08:38;;;;;;;7.57;4.37;;;6.50;99.90;;;;;;4850164;29;20221;-89
2020/12/23 06:11:19;;;;;;;7.00;4.90;;;6.50;99.90;;;;;;4845576;29;20247;-91
2020/12/23 06:14:16;;;;;;;5.67;4.77;;;6.50;99.90;;;;;;4864072;29;20285;-89
2020/12/23 06:16:49;;;;;;;6.70;5.43;;;6.50;99.90;;;;;;4843625;29;20228;-92
2020/12/23 06:19:25;;;;;;;5.47;4.37;;;6.50;99.90;;;;;;4844606;29;20258;-88
2020/12/23 06:21:52;;;;;;;6.10;5.50;;;6.60;99.90;;;;;;4846892;29;21080;-88
2020/12/23 06:24:18;;;;;;;4.90;4.27;;;6.60;99.90;;;;;;4864330;29;20220;-92
2020/12/23 06:26:49;;;;;;;9.53;5.57;;;6.60;99.90;;;;;;4850614;29;20228;-88
2020/12/23 06:29:18;;;;;;;5.80;4.73;;;6.60;99.90;;;;;;4849905;29;20303;-89
2020/12/23 06:31:48;;;;;;;7.33;4.77;;;6.60;99.90;;;;;;4844329;29;20243;-89
2020/12/23 06:34:18;;;;;;;8.57;5.30;;;6.60;99.90;;;;;;4846483;29;20527;-88
2020/12/23 06:36:45;;;;;;;9.30;5.50;;;6.60;99.90;;;;;;4847333;29;20196;-89
2020/12/23 06:39:31;;;;;;;7.67;4.00;;;6.60;99.90;;;;;;4828025;29;20216;-89
2020/12/23 06:42:00;;;;;;;7.77;4.73;;;6.60;99.90;;;;;;4843838;29;20551;-89
2020/12/23 06:45:00;;;;;;;7.23;6.60;;;6.60;99.90;;;;;;4842919;29;20327;-91
2020/12/23 06:47:31;;;;;;;7.03;5.07;;;6.60;99.90;;;;;;4858292;29;20226;-91
2020/12/23 06:50:01;;;;;;;6.10;3.27;;;6.60;99.90;;;;;;4842830;29;20792;-89
2020/12/23 06:52:27;;;;;;;5.60;3.17;;;6.60;99.90;;;;;;4842293;29;20359;-91
2020/12/23 06:55:15;;;;;;;7.27;4.30;;;6.60;99.90;;;;;;4859673;29;20273;-89
2020/12/23 06:57:41;;;;;;;15.53;2.80;;;6.60;99.90;;;;;;4859149;29;20656;-89
2020/12/23 07:00:09;;;;;;;8.53;3.30;;;6.60;99.90;;;;;;4849978;29;20755;-90
2020/12/23 07:02:46;;;;;;;5.17;4.40;;;6.60;99.90;;;;;;4842796;29;20307;-90
2020/12/23 07:05:30;;;;;;;6.47;4.10;;;6.60;99.90;;;;;;4842108;29;20354;-89
2020/12/23 07:07:59;;;;;;;5.63;4.40;;;6.70;99.90;;;;;;4859615;29;20232;-92
2020/12/23 07:10:28;;;;;;;7.90;5.03;;;6.60;99.90;;;;;;4843961;29;20220;-89
2020/12/23 07:12:59;;;;;;;3.50;3.23;;;6.70;99.90;;;;;;4844279;29;20193;-91
2020/12/23 07:15:30;;;;;;;6.83;4.97;;;6.70;99.90;;;;;;4857606;29;20227;-93
2020/12/23 07:18:07;;;;;;;6.87;3.70;;;6.70;99.90;;;;;;4828531;29;20252;-94
2020/12/23 07:20:45;;;;;;;4.77;3.27;;;6.70;99.90;;;;;;4861305;29;20274;-89
2020/12/23 07:23:13;;;;;;;7.20;4.27;;;6.70;99.90;;;;;;4844342;29;20255;-94
2020/12/23 07:25:52;;;;;;;7.77;3.90;;;6.70;99.90;;;;;;4844848;29;20225;-89
2020/12/23 07:28:29;;;;;;;6.20;3.07;;;6.70;99.90;;;;;;4843582;29;20188;-89
2020/12/23 07:31:00;;;;;;;7.40;4.00;;;6.70;99.90;;;;;;4845921;29;20216;-89
2020/12/23 07:33:27;;;;;;;6.07;3.17;;;6.70;99.90;;;;;;4843640;29;20324;-88
2020/12/23 07:35:58;;;;;;;5.80;5.23;;;6.70;99.90;;;;;;4829595;29;20581;-90
2020/12/23 07:38:27;;;;;;;5.17;3.53;;;6.70;99.90;;;;;;4842213;29;20224;-90
2020/12/23 07:40:53;;;;;;;5.03;4.03;;;6.70;99.90;;;;;;4841040;29;20251;-86
2020/12/23 07:43:20;;;;;;;5.70;5.13;;;6.70;99.90;;;;;;4841032;29;20663;-89
2020/12/23 07:45:47;;;;;;;8.33;4.17;;;6.70;99.90;;;;;;4827026;29;20622;-90
2020/12/23 07:48:18;;;;;;;7.23;4.63;;;6.70;99.90;;;;;;4842021;29;20236;-89
2020/12/23 07:50:55;;;;;;;6.00;4.63;;;6.70;99.90;;;;;;4828316;29;20259;-90
2020/12/23 07:53:25;;;;;;;2.77;2.53;;;6.70;99.90;;;;;;4842449;29;20220;-87
2020/12/23 07:55:56;;;;;;;9.73;3.93;;;6.70;99.90;;;;;;4840675;29;20602;-89
2020/12/23 07:58:22;;;;;;;7.33;3.73;;;6.70;99.90;;;;;;4857726;29;20275;-88
2020/12/23 08:00:48;;;;;;;5.13;3.57;;;6.70;99.90;;;;;;4843039;29;20325;-88
2020/12/23 08:03:14;;;;;;;4.57;4.13;;;6.70;99.90;;;;;;4824862;29;20641;-89
2020/12/23 08:05:41;;;;;;;3.47;3.13;;;6.70;99.90;;;;;;4828949;29;20710;-90
2020/12/23 08:08:08;;;;;;;3.97;2.97;;;6.70;99.90;;;;;;4856200;29;20220;-90
2020/12/23 08:10:36;;;;;;;7.87;3.73;;;6.70;99.90;;;;;;4841622;29;20244;-88
2020/12/23 08:13:04;;;;;;;7.93;4.87;;;6.80;99.90;;;;;;4859629;29;20234;-88
2020/12/23 08:15:30;;;;;;;9.13;4.40;;;6.80;99.90;;;;;;4839354;29;20228;-90
2020/12/23 08:18:04;;;;;;;5.43;4.33;;;6.80;99.90;;;;;;4856345;29;20258;-93
2020/12/23 08:20:31;;;;;;;4.17;3.47;;;6.80;99.90;;;;;;4856706;29;20231;-89
2020/12/23 08:22:58;;;;;;;10.03;4.40;;;6.80;99.90;;;;;;4825417;29;20284;-88
2020/12/23 08:25:25;;;;;;;11.93;4.03;;;6.80;99.90;;;;;;4825714;29;20188;-88
2020/12/23 08:27:52;;;;;;;10.77;3.70;;;6.80;99.90;;;;;;4840410;29;20280;-91
2020/12/23 08:30:22;;;;;;;8.50;3.43;;;6.80;99.90;;;;;;4842474;29;20231;-89
2020/12/23 08:32:56;;;;;;;5.43;4.70;;;6.90;99.90;;;;;;4858526;29;20590;-89
2020/12/23 08:35:42;;;;;;;7.57;5.83;;;6.90;99.90;;;;;;4840590;29;20219;-89
2020/12/23 08:38:26;;;;;;;6.87;4.77;;;6.90;99.90;;;;;;4839344;29;20255;-89
2020/12/23 08:40:57;;;;;;;10.17;6.00;;;7.00;99.90;;;;;;4855902;29;20281;-89
2020/12/23 08:43:28;;;;;;;9.00;5.37;;;7.00;99.90;;;;;;4842212;29;20188;-89
2020/12/23 08:45:58;;;;;;;5.47;4.87;;;6.90;99.90;;;;;;4856270;29;20185;-88
2020/12/23 08:48:29;;;;;;;6.73;5.10;;;7.00;99.90;;;;;;4827678;29;20221;-90
2020/12/23 08:51:00;;;;;;;4.87;3.53;;;7.00;99.90;;;;;;4844609;29;20232;-88
2020/12/23 08:53:29;;;;;;;6.20;4.83;;;7.00;99.90;;;;;;4860364;29;20288;-88
2020/12/23 08:55:55;;;;;;;4.17;3.53;;;7.00;99.90;;;;;;4843951;29;20260;-88
2020/12/23 08:58:22;;;;;;;6.27;4.17;;;7.00;99.90;;;;;;4813298;29;20209;-88
2020/12/23 09:01:00;;;;;;;6.67;5.10;;;7.00;99.90;;;;;;4861144;29;20201;-92
2020/12/23 09:03:27;;;;;;;5.77;5.03;;;7.00;99.90;;;;;;4844443;29;20226;-90
2020/12/23 09:05:56;;;;;;;6.13;4.03;;;7.00;99.90;;;;;;4843078;29;20815;-89
2020/12/23 09:08:28;;;;;;;7.10;5.07;;;7.00;99.90;;;;;;4842735;29;20244;-88
2020/12/23 09:10:57;;;;;;;6.27;4.27;;;7.10;99.90;;;;;;4828754;29;20248;-93
2020/12/23 09:13:33;;;;;;;7.00;4.90;;;7.10;99.90;;;;;;4860474;29;20209;-89
2020/12/23 09:15:59;;;;;;;6.40;5.13;;;7.10;99.90;;;;;;4832341;29;20228;-88
2020/12/23 09:18:26;;;;;;;7.13;4.73;;;7.10;99.90;;;;;;4850466;29;20685;-91
2020/12/23 09:21:02;;;;;;;5.83;4.07;;;7.10;99.90;;;;;;4832999;29;20762;-90
2020/12/23 09:23:28;;;;;;;9.67;4.40;;;7.10;99.90;;;;;;4838573;29;20223;-91
2020/12/23 09:25:55;;;;;;;14.93;5.50;;;7.10;99.90;;;;;;4851890;29;20239;-91
2020/12/23 09:28:26;;;;;;;8.40;3.90;;;7.10;99.90;;;;;;4834098;29;20196;-91
2020/12/23 09:30:59;;;;;;;7.43;4.70;;;7.10;99.90;;;;;;4852837;29;20208;-92
2020/12/23 09:33:25;;;;;;;4.80;3.93;;;7.10;99.90;;;;;;4865107;29;20734;-93
2020/12/23 09:36:09;;;;;;;13.40;7.03;;;7.10;99.90;;;;;;4841749;29;20224;-92
2020/12/23 09:38:35;;;;;;;4.60;3.37;;;7.10;99.90;;;;;;4841803;29;20319;-95
2020/12/23 09:41:09;;;;;;;7.67;4.20;;;7.10;99.90;;;;;;4840750;29;20279;-93
2020/12/23 09:43:37;;;;;;;7.90;5.73;;;7.10;99.90;;;;;;4856831;29;20227;-90
2020/12/23 09:46:06;;;;;;;4.47;3.70;;;7.10;99.90;;;;;;4857828;29;20192;-93
2020/12/23 09:48:32;;;;;;;6.63;5.17;;;7.10;99.90;;;;;;4853342;29;20224;-93
2020/12/23 09:50:58;;;;;;;12.10;5.47;;;7.10;99.90;;;;;;4830043;29;20594;-90
2020/12/23 09:53:25;;;;;;;10.30;5.30;;;7.10;99.90;;;;;;4838117;29;20217;-91
2020/12/23 09:55:55;;;;;;;9.60;5.83;;;7.10;99.90;;;;;;4839713;29;20243;-94
2020/12/23 09:58:21;;;;;;;4.13;2.97;;;7.10;99.90;;;;;;4842729;29;20197;-93
2020/12/23 10:00:48;;;;;;;6.97;4.50;;;7.10;99.90;;;;;;4842568;29;20215;-91
2020/12/23 10:03:14;;;;;;;4.07;3.57;;;7.10;99.90;;;;;;4827342;29;20217;-92
2020/12/23 10:05:41;;;;;;;2.77;2.53;;;7.10;99.90;;;;;;4846701;29;20972;-94
2020/12/23 10:08:07;;;;;;;3.93;3.73;;;7.10;99.90;;;;;;4841888;29;20225;-93
2020/12/23 10:10:37;;;;;;;3.67;3.13;;;7.10;99.90;;;;;;4860943;29;20248;-94
2020/12/23 10:13:03;;;;;;;5.97;3.97;;;7.10;99.90;;;;;;4843728;29;20189;-90
2020/12/23 10:15:29;;;;;;;6.00;2.57;;;7.10;99.90;;;;;;4843064;29;20251;-89
2020/12/23 10:17:55;;;;;;;7.00;3.13;;;7.10;99.90;;;;;;4841509;29;20711;-90
2020/12/23 10:20:21;;;;;;;4.10;3.77;;;7.10;99.90;;;;;;4844699;29;20225;-93
2020/12/23 10:22:47;;;;;;;6.03;4.30;;;7.10;99.90;;;;;;4842957;29;20242;-89
2020/12/23 10:25:15;;;;;;;6.83;3.70;;;7.10;99.90;;;;;;4826805;29;20612;-93
2020/12/23 10:27:41;;;;;;;8.67;4.57;;;7.10;99.90;;;;;;4857695;29;20201;-90
2020/12/23 10:30:10;;;;;;;9.13;5.30;;;7.10;99.90;;;;;;4829856;29;20239;-91
2020/12/23 10:32:39;;;;;;;8.53;4.17;;;7.10;99.90;;;;;;4843166;29;20224;-90
2020/12/23 10:35:05;;;;;;;4.33;3.27;;;7.10;99.90;;;;;;4850579;29;21138;-90
2020/12/23 10:37:31;;;;;;;6.67;4.33;;;7.10;99.90;;;;;;4839822;29;20232;-91
2020/12/23 10:39:57;;;;;;;4.23;3.00;;;7.10;99.90;;;;;;4845601;29;20208;-90
2020/12/23 10:42:27;;;;;;;10.60;5.07;;;7.10;99.90;;;;;;4842066;29;21248;-89
2020/12/23 10:44:56;;;;;;;6.13;4.03;;;7.10;99.90;;;;;;4859555;29;20224;-92
2020/12/23 10:47:22;;;;;;;4.00;3.60;;;7.10;99.90;;;;;;4843681;29;21222;-92
2020/12/23 10:49:49;;;;;;;3.97;3.37;;;7.10;99.90;;;;;;4841432;29;20236;-92
2020/12/23 10:52:14;;;;;;;3.97;3.63;;;7.10;99.90;;;;;;4839655;29;20705;-92
2020/12/23 10:54:40;;;;;;;9.17;6.60;;;7.10;99.90;;;;;;4823794;29;20208;-92
2020/12/23 10:57:06;;;;;;;4.77;3.07;;;7.10;99.90;;;;;;4857574;29;20230;-90
2020/12/23 10:59:32;;;;;;;5.17;4.17;;;7.10;99.90;;;;;;4826897;29;20347;-90
2020/12/23 11:01:57;;;;;;;4.80;4.27;;;7.20;99.90;;;;;;4824995;29;20227;-90
2020/12/23 11:04:23;;;;;;;5.93;4.37;;;7.10;99.90;;;;;;4808708;29;20211;-89
2020/12/23 11:06:50;;;;;;;5.43;4.47;;;7.10;99.90;;;;;;4823685;29;20253;-87
2020/12/23 11:09:17;;;;;;;4.23;2.90;;;7.10;99.90;;;;;;4839957;29;20220;-88
2020/12/23 11:11:42;;;;;;;4.30;3.13;;;7.10;99.90;;;;;;4823811;29;20892;-88
2020/12/23 11:14:08;;;;;;;4.10;3.30;;;7.00;99.90;;;;;;4838974;29;20782;-89
2020/12/23 11:16:34;;;;;;;6.53;3.83;;;7.00;99.90;;;;;;4839869;29;20232;-88
2020/12/23 11:19:00;;;;;;;5.50;4.33;;;7.00;99.90;;;;;;4813233;29;20702;-91
2020/12/23 11:21:25;;;;;;;5.00;3.73;;;7.00;99.90;;;;;;4840411;29;20694;-88
2020/12/23 11:23:51;;;;;;;3.43;3.13;;;7.10;99.90;;;;;;4810329;29;20372;-90
2020/12/23 11:26:20;;;;;;;4.33;3.53;;;7.00;99.90;;;;;;4840685;29;20235;-87
2020/12/23 11:28:46;;;;;;;4.03;2.80;;;7.10;99.90;;;;;;4841628;29;20216;-87
2020/12/23 11:31:13;;;;;;;4.83;3.53;;;7.10;99.90;;;;;;4840234;29;20220;-88
2020/12/23 11:33:39;;;;;;;3.03;2.73;;;7.00;99.90;;;;;;4826612;29;20212;-87
2020/12/23 11:36:06;;;;;;;6.40;2.27;;;7.10;99.90;;;;;;4839935;29;20312;-89
2020/12/23 11:38:32;;;;;;;3.07;2.70;;;7.00;99.90;;;;;;4827818;29;20327;-87
2020/12/23 11:40:57;;;;;;;3.70;2.80;;;7.00;99.90;;;;;;4826123;29;20338;-88
2020/12/23 11:43:23;;;;;;;1.00;0.93;;;7.10;99.90;;;;;;4827233;29;20211;-88
2020/12/23 11:45:49;;;;;;;3.47;1.73;;;7.10;99.90;;;;;;4841127;29;20207;-88
2020/12/23 11:48:15;;;;;;;5.20;3.60;;;7.10;99.90;;;;;;4827164;29;20598;-86
2020/12/23 11:50:41;;;;;;;3.20;3.00;;;7.10;99.90;;;;;;4839380;29;20227;-89
2020/12/23 11:53:07;;;;;;;4.70;4.30;;;7.10;99.90;;;;;;4841900;29;20306;-86
2020/12/23 11:55:33;;;;;;;2.37;2.17;;;7.10;99.90;;;;;;4858756;29;20238;-87
2020/12/23 11:57:59;;;;;;;2.37;1.90;;;7.00;99.90;;;;;;4826421;29;20196;-87
2020/12/23 12:00:25;;;;;;;3.57;3.13;;;7.10;99.90;;;;;;4823457;29;20230;-87
2020/12/23 12:02:50;;;;;;;4.53;3.00;;;7.10;99.90;;;;;;4828454;29;21018;-86
2020/12/23 12:05:16;;;;;;;2.97;2.53;;;7.10;99.90;;;;;;4856219;29;20224;-88
2020/12/23 12:07:42;;;;;;;3.60;2.43;;;7.10;99.90;;;;;;4825631;29;20235;-89
2020/12/23 12:10:08;;;;;;;3.37;2.90;;;7.10;99.90;;;;;;4810942;29;20220;-85
2020/12/23 12:12:34;;;;;;;2.00;1.80;;;7.10;99.90;;;;;;4857842;29;20196;-85
2020/12/23 12:15:01;;;;;;;2.87;2.37;;;7.10;99.90;;;;;;4840862;29;21153;-87
2020/12/23 12:17:27;;;;;;;3.00;2.73;;;7.10;99.90;;;;;;4839611;29;20220;-87
2020/12/23 12:19:53;;;;;;;3.97;2.17;;;7.10;99.90;;;;;;4856170;29;20235;-88
2020/12/23 12:22:19;;;;;;;2.83;2.73;;;7.10;99.90;;;;;;4837417;29;20195;-88
2020/12/23 12:24:45;;;;;;;6.60;4.00;;;7.10;99.90;;;;;;4842088;29;20197;-87
2020/12/23 12:27:11;;;;;;;3.87;2.53;;;7.10;99.90;;;;;;4825683;29;20215;-87
2020/12/23 12:29:37;;;;;;;4.53;4.13;;;7.10;99.90;;;;;;4839278;29;20223;-86
2020/12/23 12:32:03;;;;;;;3.80;2.70;;;7.10;99.90;;;;;;4838384;29;21003;-87
2020/12/23 12:34:29;;;;;;;3.33;3.03;;;7.10;99.90;;;;;;4826779;29;20358;-86
2020/12/23 12:36:56;;;;;;;3.03;2.50;;;7.10;99.90;;;;;;4814049;29;20192;-86
2020/12/23 12:39:22;;;;;;;6.23;5.17;;;7.10;99.90;;;;;;4841538;29;20250;-88
2020/12/23 12:41:48;;;;;;;4.60;3.47;;;7.20;99.90;;;;;;4842186;29;20240;-88
2020/12/23 12:44:14;;;;;;;10.57;4.63;;;7.20;99.90;;;;;;4823711;29;20272;-88
2020/12/23 12:46:39;;;;;;;8.10;4.80;;;7.20;99.90;;;;;;4858429;29;20276;-87
2020/12/23 12:49:05;;;;;;;8.93;5.03;;;7.20;99.90;;;;;;4810486;29;20196;-86
2020/12/23 12:51:31;;;;;;;6.43;4.43;;;7.20;99.90;;;;;;4840513;29;20351;-88
2020/12/23 12:53:58;;;;;;;4.90;4.13;;;7.20;99.90;;;;;;4839892;29;20260;-87
2020/12/23 12:56:29;;;;;;;4.43;3.70;;;7.20;99.90;;;;;;4824424;29;20217;-88
2020/12/23 12:58:55;;;;;;;6.90;3.93;;;7.20;99.90;;;;;;4824690;29;20232;-87